LYBE/BEG METAR and TAF weather

Enter ICAO airport designator
Station Type Date Time Source
LYBE METAR 2020/07/13 15:00 UTC NOAA

LYBE 131500Z 02010KT 350V060 CAVOK 24/06 Q1019 NOSIG


Station Type Date Time Source
LYBE Decoded METAR 2020/07/13 15:00 UTC NOAA

Beograd / Surcin, Serbia and Montenegro (LYBE) 44-49N 020-17E 99M
Jul 13, 2020 - 11:00 AM EDT / 2020.07.13 1500 UTC
Wind: from the NNE (020 degrees) at 12 MPH (10 KT) (direction variable):0
Visibility: greater than 7 mile(s):0
Temperature: 75 F (24 C)
Dew Point: 42 F (6 C)
Relative Humidity: 31%
Pressure (altimeter): 30.09 in. Hg (1019 hPa)
ob: LYBE 131500Z 02010KT 350V060 CAVOK 24/06 Q1019 NOSIG
cycle: 15

Station Type Date Time Source
LYBE TAF 2020/07/13 12:21 UTC NOAA

TAF LYBE 131100Z 1312/1412 34006KT 9999 SCT040 TX24/1313Z TN11/1403Z
TEMPO 1312/1316 02016KT

Example: see airport list